createdAt,value
2018-06-19T00:01:23.948Z,17.50
2018-06-19T00:03:52.404Z,17.30
2018-06-19T00:06:20.920Z,17.20
2018-06-19T00:08:49.499Z,17.40
2018-06-19T00:11:17.965Z,17.50
2018-06-19T00:13:46.636Z,17.60
2018-06-19T00:16:15.233Z,17.60
2018-06-19T00:18:46.337Z,17.70
2018-06-19T00:21:20.747Z,17.70
2018-06-19T00:23:49.217Z,17.70
2018-06-19T00:26:17.705Z,17.70
2018-06-19T00:28:47.604Z,17.70
2018-06-19T00:31:16.055Z,17.70
2018-06-19T00:33:44.499Z,17.70
2018-06-19T00:36:12.956Z,17.60
2018-06-19T00:38:41.444Z,17.60
2018-06-19T00:41:09.885Z,17.70
2018-06-19T00:43:38.354Z,17.70
2018-06-19T00:46:08.031Z,17.70
2018-06-19T00:48:36.682Z,17.70
2018-06-19T00:51:05.214Z,17.70
2018-06-19T00:53:33.660Z,17.60
2018-06-19T00:56:13.335Z,17.60
2018-06-19T00:58:42.239Z,17.50
2018-06-19T01:01:11.041Z,17.50
2018-06-19T01:03:39.478Z,17.50
2018-06-19T01:06:08.260Z,17.40
2018-06-19T01:08:36.735Z,17.40
2018-06-19T01:11:05.164Z,17.40
2018-06-19T01:13:33.848Z,17.40
2018-06-19T01:16:02.259Z,17.30
2018-06-19T01:18:30.935Z,17.30
2018-06-19T01:20:59.424Z,17.20
2018-06-19T01:23:27.854Z,17.30
2018-06-19T01:25:56.375Z,17.20
2018-06-19T01:28:24.804Z,17.20
2018-06-19T01:30:53.418Z,17.10
2018-06-19T01:33:21.840Z,17.20
2018-06-19T01:35:50.297Z,17.20
2018-06-19T01:38:18.779Z,17.20
2018-06-19T01:40:47.210Z,17.20
2018-06-19T01:43:15.787Z,17.20
2018-06-19T01:45:44.235Z,17.30
2018-06-19T01:48:12.668Z,17.40
2018-06-19T01:50:41.312Z,17.50
2018-06-19T01:53:09.958Z,17.50
2018-06-19T01:55:38.412Z,17.50
2018-06-19T01:58:06.842Z,17.30
2018-06-19T02:00:35.567Z,17.10
2018-06-19T02:03:04.020Z,17.10
2018-06-19T02:05:32.444Z,17.10
2018-06-19T02:08:00.888Z,17.00
2018-06-19T02:10:29.480Z,17.10
2018-06-19T02:12:58.017Z,17.10
2018-06-19T02:15:26.612Z,17.00
2018-06-19T02:17:55.095Z,17.20
2018-06-19T02:20:23.540Z,17.20
2018-06-19T02:22:51.994Z,17.10
2018-06-19T02:25:20.504Z,17.20
2018-06-19T02:27:49.192Z,17.30
2018-06-19T02:30:17.650Z,17.30
2018-06-19T02:32:46.115Z,17.20
2018-06-19T02:37:42.915Z,17.30
2018-06-19T02:40:11.344Z,17.30
2018-06-19T02:42:39.874Z,17.30
2018-06-19T02:45:08.293Z,17.30
2018-06-19T02:47:36.813Z,17.30
2018-06-19T02:50:05.284Z,17.20
2018-06-19T02:52:33.878Z,17.20
2018-06-19T02:55:02.314Z,17.20
2018-06-19T02:57:30.876Z,17.30
2018-06-19T02:59:59.508Z,17.20
2018-06-19T03:02:28.062Z,17.30
2018-06-19T03:04:56.612Z,17.20
2018-06-19T03:07:25.140Z,17.20
2018-06-19T03:09:53.590Z,17.10
2018-06-19T03:12:22.012Z,17.10
2018-06-19T03:14:50.487Z,17.10
2018-06-19T03:17:18.941Z,17.10
2018-06-19T03:19:47.414Z,17.20
2018-06-19T03:22:15.976Z,17.20
2018-06-19T03:24:44.516Z,17.10
2018-06-19T03:27:13.139Z,17.10
2018-06-19T03:29:41.588Z,17.10
2018-06-19T03:32:10.193Z,17.10
2018-06-19T03:34:38.646Z,17.10
2018-06-19T03:37:07.142Z,17.00
2018-06-19T03:39:35.616Z,17.00
2018-06-19T03:42:04.111Z,17.00
2018-06-19T03:44:32.625Z,17.00
2018-06-19T03:47:01.213Z,17.00
2018-06-19T03:49:29.756Z,17.00
2018-06-19T03:51:58.161Z,17.00
2018-06-19T03:54:26.611Z,17.00
2018-06-19T03:56:55.453Z,17.10
2018-06-19T03:59:23.874Z,17.10
2018-06-19T04:01:52.363Z,17.10
2018-06-19T04:04:21.019Z,17.20
2018-06-19T04:06:49.489Z,17.30
2018-06-19T04:09:17.913Z,17.40
2018-06-19T04:11:46.361Z,17.40
2018-06-19T04:14:14.905Z,17.40
2018-06-19T04:16:43.368Z,17.40
2018-06-19T04:19:11.800Z,17.30
2018-06-19T04:21:40.309Z,17.50
2018-06-19T04:24:08.809Z,17.50
2018-06-19T04:26:37.345Z,17.70
2018-06-19T04:29:06.017Z,17.80
2018-06-19T04:31:34.534Z,17.90
2018-06-19T04:34:03.108Z,18.00
2018-06-19T04:36:31.579Z,17.90
2018-06-19T04:39:00.026Z,18.00
2018-06-19T04:41:28.484Z,18.00
2018-06-19T04:43:57.104Z,18.00
2018-06-19T04:46:25.541Z,18.00
2018-06-19T04:48:54.001Z,17.90
2018-06-19T04:51:22.460Z,17.90
2018-06-19T04:53:50.931Z,17.80
2018-06-19T04:56:19.400Z,17.90
2018-06-19T04:58:47.849Z,17.80
2018-06-19T05:01:16.318Z,17.80
2018-06-19T05:03:44.981Z,17.90
2018-06-19T05:06:13.405Z,17.90
2018-06-19T05:08:41.865Z,18.00
2018-06-19T05:11:10.377Z,18.00
2018-06-19T05:13:38.811Z,18.00
2018-06-19T05:16:07.383Z,18.00
2018-06-19T05:18:35.913Z,18.10
2018-06-19T05:21:04.628Z,18.10
2018-06-19T05:23:33.084Z,18.10
2018-06-19T05:26:01.886Z,18.20
2018-06-19T05:28:30.297Z,18.30
2018-06-19T05:30:59.001Z,18.40
2018-06-19T05:35:56.252Z,18.50
2018-06-19T05:38:24.889Z,18.60
2018-06-19T05:40:53.410Z,18.70
2018-06-19T05:43:21.957Z,18.90
2018-06-19T05:45:50.680Z,18.90
2018-06-19T05:48:19.382Z,19.00
2018-06-19T05:50:47.869Z,19.10
2018-06-19T05:53:16.322Z,19.00
2018-06-19T05:55:44.775Z,19.10
2018-06-19T05:58:13.470Z,19.20
2018-06-19T06:00:41.941Z,19.20
2018-06-19T06:03:10.665Z,19.20
2018-06-19T06:05:39.113Z,19.30
2018-06-19T06:08:07.620Z,19.30
2018-06-19T06:10:36.230Z,19.50
2018-06-19T06:13:04.702Z,19.50
2018-06-19T06:15:33.155Z,19.60
2018-06-19T06:18:01.687Z,19.40
2018-06-19T06:20:30.173Z,19.50
2018-06-19T06:22:58.676Z,19.60
2018-06-19T06:25:27.104Z,19.60
2018-06-19T06:27:55.635Z,19.50
2018-06-19T06:30:24.225Z,19.40
2018-06-19T06:32:52.786Z,19.60
2018-06-19T06:35:21.364Z,19.70
2018-06-19T06:37:49.812Z,19.80
2018-06-19T06:40:18.253Z,19.90
2018-06-19T06:42:46.768Z,20.00
2018-06-19T06:45:15.276Z,20.00
2018-06-19T06:47:43.716Z,19.90
2018-06-19T06:50:12.273Z,20.00
2018-06-19T06:52:40.661Z,20.00
2018-06-19T06:55:09.152Z,20.00
2018-06-19T06:57:37.622Z,20.20
2018-06-19T07:00:06.496Z,20.30
2018-06-19T07:02:35.025Z,20.30
2018-06-19T07:05:03.480Z,20.30
2018-06-19T07:07:31.908Z,20.10
2018-06-19T07:10:00.484Z,20.50
2018-06-19T07:12:29.056Z,20.60
2018-06-19T07:14:57.568Z,20.40
2018-06-19T07:17:26.161Z,20.40
2018-06-19T07:19:54.617Z,20.50
2018-06-19T07:22:23.074Z,20.60
2018-06-19T07:24:51.490Z,22.00
2018-06-19T07:27:20.053Z,22.40
2018-06-19T07:29:48.724Z,22.30
2018-06-19T07:32:17.477Z,22.80
2018-06-19T07:34:46.140Z,22.00
2018-06-19T07:37:14.624Z,21.60
2018-06-19T07:39:43.055Z,21.00
2018-06-19T07:42:11.492Z,21.00
2018-06-19T07:44:40.085Z,20.90
2018-06-19T07:47:08.609Z,20.70
2018-06-19T07:49:37.045Z,20.40
2018-06-19T07:52:05.693Z,20.10
2018-06-19T07:54:34.119Z,20.30
2018-06-19T07:57:02.577Z,20.60
2018-06-19T07:59:31.109Z,20.80
2018-06-19T08:01:59.728Z,21.30
2018-06-19T08:04:28.224Z,22.80
2018-06-19T08:06:56.791Z,23.80
2018-06-19T08:09:25.388Z,23.40
2018-06-19T08:11:53.824Z,24.20
2018-06-19T08:14:22.286Z,22.80
2018-06-19T08:16:50.762Z,22.20
2018-06-19T08:19:19.207Z,21.60
2018-06-19T08:21:47.624Z,21.40
2018-06-19T08:24:16.072Z,21.50
2018-06-19T08:26:44.722Z,21.40
2018-06-19T08:29:13.167Z,21.40
2018-06-19T08:31:41.744Z,21.40
2018-06-19T08:34:10.228Z,21.60
2018-06-19T08:36:38.719Z,21.50
2018-06-19T08:39:09.489Z,21.50
2018-06-19T08:41:38.040Z,21.70
2018-06-19T08:44:06.620Z,23.50
2018-06-19T08:46:35.160Z,24.70
2018-06-19T08:49:03.768Z,24.10
2018-06-19T08:51:32.329Z,23.20
2018-06-19T08:54:00.960Z,22.60
2018-06-19T08:56:29.585Z,22.70
2018-06-19T08:58:58.502Z,23.20
2018-06-19T09:01:26.976Z,23.80
2018-06-19T09:03:55.564Z,24.50
2018-06-19T09:06:24.240Z,24.80
2018-06-19T09:08:52.712Z,23.60
2018-06-19T09:11:21.304Z,23.20
2018-06-19T09:13:49.744Z,23.60
2018-06-19T09:16:18.373Z,23.50
2018-06-19T09:18:46.855Z,23.10
2018-06-19T09:21:15.601Z,23.00
2018-06-19T09:23:44.059Z,22.60
2018-06-19T09:26:12.699Z,22.80
2018-06-19T09:28:41.241Z,22.40
2018-06-19T09:33:37.973Z,23.20
2018-06-19T09:36:06.473Z,23.70
2018-06-19T09:38:34.903Z,23.40
2018-06-19T09:41:03.354Z,22.80
2018-06-19T09:43:31.928Z,22.80
2018-06-19T09:46:00.473Z,22.60
2018-06-19T09:48:28.917Z,22.70
2018-06-19T09:50:57.365Z,23.50
2018-06-19T09:53:25.845Z,24.90
2018-06-19T09:55:54.505Z,25.80
2018-06-19T09:58:23.011Z,27.20
2018-06-19T10:00:51.590Z,27.40
2018-06-19T10:03:20.225Z,28.70
2018-06-19T10:05:48.690Z,27.40
2018-06-19T10:08:17.109Z,26.10
2018-06-19T10:10:45.535Z,25.10
2018-06-19T10:13:14.148Z,24.20
2018-06-19T10:15:42.792Z,23.60
2018-06-19T10:18:11.720Z,22.90
2018-06-19T10:20:40.188Z,22.70
2018-06-19T10:23:08.716Z,22.50
2018-06-19T10:25:37.300Z,22.50
2018-06-19T10:28:05.927Z,22.60
2018-06-19T10:30:34.418Z,22.40
2018-06-19T10:33:02.864Z,22.60
2018-06-19T10:35:31.385Z,23.00
2018-06-19T10:37:59.780Z,22.90
2018-06-19T10:40:28.352Z,23.60
2018-06-19T10:42:56.800Z,24.10
2018-06-19T10:45:25.524Z,24.30
2018-06-19T10:47:54.089Z,24.50
2018-06-19T10:50:22.568Z,24.10
2018-06-19T10:52:51.161Z,23.10
2018-06-19T10:55:19.596Z,23.00
2018-06-19T10:57:48.048Z,23.20
2018-06-19T11:00:16.562Z,23.60
2018-06-19T11:02:45.189Z,24.30
2018-06-19T11:05:13.873Z,24.50
2018-06-19T11:07:42.361Z,24.60
2018-06-19T11:10:10.789Z,24.60
2018-06-19T11:12:39.269Z,25.00
2018-06-19T11:15:07.685Z,26.20
2018-06-19T11:17:36.229Z,27.20
2018-06-19T11:20:04.782Z,27.80
2018-06-19T11:22:33.481Z,27.30
2018-06-19T11:25:01.922Z,28.10
2018-06-19T11:27:30.532Z,28.10
2018-06-19T11:29:58.996Z,26.80
2018-06-19T11:32:27.567Z,26.40
2018-06-19T11:34:55.998Z,25.60
2018-06-19T11:37:24.517Z,25.40
2018-06-19T11:39:52.990Z,24.90
2018-06-19T11:42:21.472Z,24.10
2018-06-19T11:44:49.996Z,24.50
2018-06-19T11:47:18.629Z,25.60
2018-06-19T11:49:47.249Z,25.80
2018-06-19T11:52:15.727Z,24.90
2018-06-19T11:54:44.368Z,25.30
2018-06-19T11:57:12.890Z,26.10
2018-06-19T11:59:41.309Z,26.30
2018-06-19T12:02:09.803Z,26.50
2018-06-19T12:04:38.424Z,26.10
2018-06-19T12:07:07.137Z,25.30
2018-06-19T12:09:35.730Z,25.80
2018-06-19T12:12:04.356Z,25.40
2018-06-19T12:14:32.801Z,24.70
2018-06-19T12:17:01.242Z,24.50
2018-06-19T12:19:29.728Z,24.50
2018-06-19T12:21:58.192Z,25.30
2018-06-19T12:24:26.628Z,26.00
2018-06-19T12:26:55.132Z,25.30
2018-06-19T12:29:23.653Z,24.40
2018-06-19T12:31:52.114Z,24.40
2018-06-19T12:34:20.672Z,24.10
2018-06-19T12:36:49.348Z,24.10
2018-06-19T12:39:17.936Z,24.10
2018-06-19T12:41:47.701Z,24.90
2018-06-19T12:44:16.261Z,26.00
2018-06-19T12:46:44.677Z,26.50
2018-06-19T12:49:13.324Z,26.90
2018-06-19T12:51:54.515Z,26.70
2018-06-19T12:55:31.271Z,26.30
2018-06-19T12:57:59.728Z,25.70
2018-06-19T13:00:28.214Z,25.80
2018-06-19T13:03:08.092Z,26.40
2018-06-19T13:05:47.869Z,25.90
2018-06-19T13:08:16.485Z,26.50
2018-06-19T13:10:44.933Z,26.30
2018-06-19T13:13:25.973Z,26.00
2018-06-19T13:15:55.230Z,25.50
2018-06-19T13:18:36.164Z,25.40
2018-06-19T13:21:04.685Z,26.30
2018-06-19T13:23:33.429Z,27.00
2018-06-19T13:26:02.183Z,27.30
2018-06-19T13:29:44.197Z,27.50
2018-06-19T13:32:12.672Z,26.10
2018-06-19T13:34:41.205Z,26.40
2018-06-19T13:37:09.687Z,26.10
2018-06-19T13:39:39.003Z,26.00
2018-06-19T13:42:22.568Z,26.10
2018-06-19T13:44:58.065Z,25.80
2018-06-19T13:47:26.521Z,25.80
2018-06-19T13:49:55.041Z,26.30
2018-06-19T13:52:23.556Z,26.50
2018-06-19T13:54:51.992Z,27.20
2018-06-19T13:57:39.888Z,27.40
2018-06-19T14:00:13.335Z,26.60
2018-06-19T14:02:42.068Z,26.90
2018-06-19T14:05:11.208Z,26.70
2018-06-19T14:07:53.244Z,26.50
2018-06-19T14:10:32.925Z,26.10
2018-06-19T14:13:02.475Z,26.50
2018-06-19T14:15:38.005Z,26.40
2018-06-19T14:18:06.912Z,26.20
2018-06-19T14:20:35.891Z,26.10
2018-06-19T14:23:04.400Z,26.00
2018-06-19T14:25:33.169Z,25.60
2018-06-19T14:28:01.590Z,25.50
2018-06-19T14:30:30.042Z,25.30
2018-06-19T14:32:58.499Z,25.30
2018-06-19T14:35:26.940Z,25.40
2018-06-19T14:37:55.488Z,25.60
2018-06-19T14:40:24.039Z,25.60
2018-06-19T14:42:52.625Z,25.50
2018-06-19T14:45:21.221Z,25.60
2018-06-19T14:47:49.761Z,26.10
2018-06-19T14:50:18.320Z,26.50
2018-06-19T14:52:46.926Z,26.40
2018-06-19T14:55:15.485Z,26.00
2018-06-19T14:57:44.126Z,25.80
2018-06-19T15:00:12.684Z,25.80
2018-06-19T15:02:41.141Z,25.80
2018-06-19T15:05:09.751Z,25.70
2018-06-19T15:07:42.480Z,25.50
2018-06-19T15:10:10.956Z,25.50
2018-06-19T15:12:39.425Z,25.60
2018-06-19T15:15:07.852Z,25.60
2018-06-19T15:17:36.609Z,25.60
2018-06-19T15:20:05.693Z,25.50
2018-06-19T15:22:34.152Z,25.50
2018-06-19T15:25:02.582Z,25.60
2018-06-19T15:27:31.119Z,25.70
2018-06-19T15:32:27.715Z,25.80
2018-06-19T15:34:56.553Z,25.80
2018-06-19T15:37:25.142Z,25.70
2018-06-19T15:39:53.699Z,25.40
2018-06-19T15:42:22.217Z,25.60
2018-06-19T15:44:50.729Z,25.70
2018-06-19T15:47:19.395Z,25.90
2018-06-19T15:49:47.881Z,26.00
2018-06-19T15:52:16.347Z,25.90
2018-06-19T15:54:45.050Z,26.00
2018-06-19T15:57:13.500Z,25.80
2018-06-19T15:59:42.287Z,25.80
2018-06-19T16:02:10.749Z,25.90
2018-06-19T16:04:39.400Z,25.90
2018-06-19T16:07:07.860Z,26.10
2018-06-19T16:09:36.397Z,26.00
2018-06-19T16:12:05.012Z,26.00
2018-06-19T16:14:33.567Z,26.10
2018-06-19T16:17:02.185Z,25.90
2018-06-19T16:19:30.759Z,26.00
2018-06-19T16:21:59.262Z,26.10
2018-06-19T16:24:28.081Z,26.30
2018-06-19T16:26:56.764Z,26.60
2018-06-19T16:29:25.192Z,26.40
2018-06-19T16:31:53.649Z,26.10
2018-06-19T16:34:22.100Z,25.80
2018-06-19T16:36:50.800Z,26.00
2018-06-19T16:39:19.245Z,25.90
2018-06-19T16:41:47.684Z,25.90
2018-06-19T16:44:16.136Z,25.70
2018-06-19T16:46:44.897Z,25.90
2018-06-19T16:49:13.452Z,25.80
2018-06-19T16:51:42.082Z,25.60
2018-06-19T16:54:10.644Z,25.70
2018-06-19T16:56:40.037Z,25.80
2018-06-19T16:59:08.778Z,25.70
2018-06-19T17:01:37.474Z,25.60
2018-06-19T17:04:05.928Z,25.70
2018-06-19T17:06:34.890Z,25.50
2018-06-19T17:09:03.516Z,25.60
2018-06-19T17:11:32.235Z,25.60
2018-06-19T17:14:00.705Z,25.50
2018-06-19T17:16:29.275Z,25.50
2018-06-19T17:18:57.891Z,25.40
2018-06-19T17:21:26.584Z,25.40
2018-06-19T17:23:55.031Z,25.30
2018-06-19T17:26:23.525Z,25.20
2018-06-19T17:28:51.971Z,25.30
2018-06-19T17:31:20.424Z,25.20
2018-06-19T17:33:48.992Z,25.20
2018-06-19T17:36:17.480Z,25.20
2018-06-19T17:38:45.937Z,25.20
2018-06-19T17:41:14.421Z,25.20
2018-06-19T17:43:42.955Z,25.30
2018-06-19T17:46:11.635Z,25.20
2018-06-19T17:48:40.092Z,25.10
2018-06-19T17:53:36.831Z,25.10
2018-06-19T17:56:05.631Z,25.10
2018-06-19T17:58:34.060Z,25.00
2018-06-19T18:01:02.733Z,24.80
2018-06-19T18:03:31.192Z,24.70
2018-06-19T18:05:59.995Z,24.70
2018-06-19T18:08:28.620Z,24.70
2018-06-19T18:10:57.398Z,24.70
2018-06-19T18:13:25.824Z,24.70
2018-06-19T18:15:54.323Z,24.60
2018-06-19T18:18:22.877Z,24.60
2018-06-19T18:20:51.453Z,24.50
2018-06-19T18:23:19.933Z,24.40
2018-06-19T18:25:48.620Z,24.50
2018-06-19T18:28:17.160Z,24.30
2018-06-19T18:30:45.925Z,24.40
2018-06-19T18:33:14.372Z,24.30
2018-06-19T18:35:42.913Z,24.30
2018-06-19T18:38:11.488Z,24.30
2018-06-19T18:40:40.331Z,24.30
2018-06-19T18:43:08.853Z,24.30
2018-06-19T18:45:37.700Z,24.20
2018-06-19T18:48:06.317Z,24.20
2018-06-19T18:50:34.893Z,24.20
2018-06-19T18:53:03.403Z,24.10
2018-06-19T18:55:32.061Z,24.10
2018-06-19T18:58:00.596Z,24.00
2018-06-19T19:00:29.253Z,23.90
2018-06-19T19:02:57.915Z,23.80
2018-06-19T19:05:26.351Z,23.70
2018-06-19T19:07:54.914Z,23.70
2018-06-19T19:10:28.855Z,23.60
2018-06-19T19:12:57.348Z,23.60
2018-06-19T19:15:31.163Z,23.60
2018-06-19T19:18:05.029Z,23.50
2018-06-19T19:20:33.804Z,23.50
2018-06-19T19:23:02.323Z,23.40
2018-06-19T19:25:30.819Z,23.30
2018-06-19T19:28:04.695Z,23.20
2018-06-19T19:30:33.270Z,23.20
2018-06-19T19:33:01.778Z,23.10
2018-06-19T19:35:30.512Z,23.10
2018-06-19T19:38:04.348Z,23.00
2018-06-19T19:40:32.917Z,22.90
2018-06-19T19:43:01.472Z,22.80
2018-06-19T19:45:30.197Z,22.60
2018-06-19T19:48:04.031Z,22.60
2018-06-19T19:50:32.847Z,22.40
2018-06-19T19:53:01.576Z,22.50
2018-06-19T19:55:30.254Z,22.40
2018-06-19T20:00:32.639Z,22.50
2018-06-19T20:03:01.396Z,22.40
2018-06-19T20:05:30.439Z,22.40
2018-06-19T20:07:58.947Z,22.30
2018-06-19T20:10:27.530Z,22.20
2018-06-19T20:12:56.016Z,22.20
2018-06-19T20:15:24.518Z,22.20
2018-06-19T20:17:53.144Z,22.10
2018-06-19T20:20:21.703Z,22.10
2018-06-19T20:22:50.202Z,22.00
2018-06-19T20:25:18.770Z,22.00
2018-06-19T20:27:47.626Z,22.00
2018-06-19T20:30:16.305Z,22.00
2018-06-19T20:32:44.861Z,21.90
2018-06-19T20:35:13.394Z,22.00
2018-06-19T20:37:42.145Z,21.80
2018-06-19T20:40:10.751Z,21.70
2018-06-19T20:42:39.541Z,21.70
2018-06-19T20:45:08.601Z,21.90
2018-06-19T20:47:37.449Z,21.70
2018-06-19T20:50:05.966Z,21.70
2018-06-19T20:52:34.529Z,21.90
2018-06-19T20:55:02.970Z,21.90
2018-06-19T20:57:31.802Z,21.80
2018-06-19T21:00:00.292Z,21.70
2018-06-19T21:02:29.003Z,21.50
2018-06-19T21:04:57.700Z,21.50
2018-06-19T21:07:26.173Z,21.40
2018-06-19T21:12:22.976Z,21.40
2018-06-19T21:14:51.475Z,21.40
2018-06-19T21:17:19.954Z,21.40
2018-06-19T21:19:48.863Z,21.30
2018-06-19T21:22:24.427Z,21.20
2018-06-19T21:24:52.968Z,21.00
2018-06-19T21:27:21.813Z,21.10
2018-06-19T21:32:19.028Z,21.20
2018-06-19T21:34:47.778Z,21.20
2018-06-19T21:37:16.202Z,20.90
2018-06-19T21:39:44.721Z,20.90
2018-06-19T21:42:13.202Z,20.90
2018-06-19T21:44:41.665Z,21.00
2018-06-19T21:47:10.136Z,20.80
2018-06-19T21:49:38.741Z,20.90
2018-06-19T21:52:07.641Z,20.90
2018-06-19T21:54:36.182Z,20.70
2018-06-19T21:57:04.721Z,20.70
2018-06-19T21:59:33.184Z,20.70
2018-06-19T22:02:01.839Z,20.60
2018-06-19T22:04:30.238Z,20.70
2018-06-19T22:06:59.118Z,20.70
2018-06-19T22:09:27.837Z,20.70
2018-06-19T22:11:56.388Z,20.80
2018-06-19T22:14:24.876Z,20.60
2018-06-19T22:16:53.436Z,20.60
2018-06-19T22:19:22.013Z,20.70
2018-06-19T22:21:50.475Z,20.60
2018-06-19T22:24:18.952Z,20.50
2018-06-19T22:26:47.460Z,20.40
2018-06-19T22:29:15.848Z,20.40
2018-06-19T22:31:44.417Z,20.30
2018-06-19T22:34:13.110Z,20.30
2018-06-19T22:36:41.837Z,20.20
2018-06-19T22:39:10.339Z,20.10
2018-06-19T22:41:38.796Z,20.20
2018-06-19T22:44:07.348Z,20.20
2018-06-19T22:46:35.885Z,20.10
2018-06-19T22:49:04.344Z,20.10
2018-06-19T22:51:32.768Z,20.10
2018-06-19T22:54:01.299Z,20.20
2018-06-19T22:56:29.861Z,20.20
2018-06-19T22:58:58.494Z,20.20
2018-06-19T23:01:27.064Z,20.20
2018-06-19T23:03:55.523Z,20.10
2018-06-19T23:06:23.978Z,20.00
2018-06-19T23:08:52.478Z,20.10
2018-06-19T23:11:20.940Z,20.00
2018-06-19T23:13:49.468Z,20.00
2018-06-19T23:16:18.145Z,20.10
2018-06-19T23:18:46.589Z,20.10
2018-06-19T23:21:15.297Z,20.10
2018-06-19T23:23:43.760Z,19.90
2018-06-19T23:26:12.281Z,19.90
2018-06-19T23:28:40.788Z,19.80
2018-06-19T23:31:09.265Z,20.00
2018-06-19T23:33:37.822Z,20.00
2018-06-19T23:36:06.268Z,20.00
2018-06-19T23:38:34.901Z,19.90
2018-06-19T23:41:03.392Z,19.80
2018-06-19T23:43:32.033Z,19.70
2018-06-19T23:46:00.464Z,19.80
2018-06-19T23:48:29.055Z,19.70
2018-06-19T23:50:57.579Z,19.80
2018-06-19T23:53:26.204Z,19.70
2018-06-19T23:55:54.748Z,19.70
2018-06-19T23:58:23.219Z,19.60
